Time,TemperatureF,DewpointF,PressureIn,WindDirection,WindDirectionDegrees,WindSpeedMPH,WindSpeedGustMPH,Humidity,HourlyPrecipIn,Conditions,Clouds,dailyrainin,SoftwareType,DateUTC
2013-07-06 00:12:00,76.0,66.0,29.72,SE,141,4.0,-999.0,71,-99.99,,,-99.99,,2013-07-06 05:12:00,
2013-07-06 00:22:00,76.0,66.0,29.72,SE,141,4.0,-999.0,71,-99.99,,,-99.99,,2013-07-06 05:22:00,
2013-07-06 00:33:00,76.0,66.0,29.73,SE,132,3.0,-999.0,72,-99.99,,,-99.99,,2013-07-06 05:33:00,
2013-07-06 00:42:00,76.0,65.0,29.73,SE,145,4.0,-999.0,71,-99.99,,,-99.99,,2013-07-06 05:42:00,
2013-07-06 00:53:00,76.0,66.0,29.73,South,177,3.0,-999.0,71,-99.99,,,-99.99,,2013-07-06 05:53:00,
2013-07-06 01:12:00,74.0,66.0,29.73,SSW,205,-999.0,-999.0,76,-99.99,,,-99.99,,2013-07-06 06:12:00,
2013-07-06 01:43:00,72.0,68.0,29.73,South,188,10.0,-999.0,87,-99.99,,,-99.99,,2013-07-06 06:43:00,
2013-07-06 01:53:00,72.0,67.0,29.73,SE,144,6.0,-999.0,84,-99.99,,,-99.99,,2013-07-06 06:53:00,
2013-07-06 02:12:00,72.0,67.0,29.73,SE,141,8.0,-999.0,85,-99.99,,,-99.99,,2013-07-06 07:12:00,
2013-07-06 02:22:00,72.0,67.0,29.73,SE,141,8.0,-999.0,85,-99.99,,,-99.99,,2013-07-06 07:22:00,
2013-07-06 03:21:00,72.0,66.0,29.72,SE,141,6.0,-999.0,81,-99.99,,,-99.99,,2013-07-06 08:21:00,
2013-07-06 03:43:00,73.0,67.0,29.72,SE,130,2.0,-999.0,81,-99.99,,,-99.99,,2013-07-06 08:43:00,
2013-07-06 05:11:00,71.0,68.0,29.72,SSW,213,2.0,-999.0,91,-99.99,,,-99.99,,2013-07-06 10:11:00,
2013-07-06 05:42:00,72.0,69.0,29.72,SW,223,5.0,-999.0,90,-99.99,,,-99.99,,2013-07-06 10:42:00,
2013-07-06 06:11:00,71.0,68.0,29.72,WSW,251,4.0,-999.0,92,-99.99,,,-99.99,,2013-07-06 11:11:00,
2013-07-06 06:22:00,71.0,68.0,29.72,WSW,251,4.0,-999.0,92,-99.99,,,-99.99,,2013-07-06 11:22:00,
2013-07-06 06:42:00,71.0,68.0,29.71,WSW,257,2.0,-999.0,91,-99.99,,,-99.99,,2013-07-06 11:42:00,
2013-07-06 07:52:00,69.0,68.0,29.73,East,89,8.0,-999.0,96,-99.99,,,-99.99,,2013-07-06 12:52:00,
2013-07-06 08:22:00,69.0,-99.9,29.74,SE,141,8.0,-999.0,-999,-99.99,,,-99.99,,2013-07-06 13:22:00,
2013-07-06 08:43:00,70.0,-99.9,29.72,ESE,107,5.0,-999.0,-999,-99.99,,,-99.99,,2013-07-06 13:43:00,
2013-07-06 08:52:00,71.0,-99.9,29.72,ENE,73,8.0,-999.0,-999,-99.99,,,-99.99,,2013-07-06 13:52:00,
2013-07-06 09:34:00,72.0,71.0,29.72,East,93,4.0,-999.0,95,-99.99,,,-99.99,,2013-07-06 14:34:00,
2013-07-06 09:42:00,72.0,70.0,29.72,ESE,103,5.0,-999.0,94,-99.99,,,-99.99,,2013-07-06 14:42:00,
2013-07-06 09:53:00,72.0,70.0,29.72,East,97,7.0,-999.0,92,-99.99,,,-99.99,,2013-07-06 14:53:00,
2013-07-06 10:22:00,73.0,70.0,29.72,East,86,10.0,-999.0,90,-99.99,,,-99.99,,2013-07-06 15:22:00,
2013-07-06 10:53:00,73.0,70.0,29.71,East,79,13.0,-999.0,89,-99.99,,,-99.99,,2013-07-06 15:53:00,
2013-07-06 12:20:00,78.0,67.0,29.72,ESE,110,14.0,-999.0,70,-99.99,,,-99.99,,2013-07-06 17:20:00,
2013-07-06 12:50:00,78.0,67.0,29.73,SSE,165,11.0,-999.0,68,-99.99,,,-99.99,,2013-07-06 17:50:00,
2013-07-06 12:59:00,77.0,66.0,29.72,SSE,150,14.0,-999.0,69,-99.99,,,-99.99,,2013-07-06 17:59:00,
2013-07-06 13:21:00,77.0,67.0,29.72,SE,140,14.0,-999.0,71,-99.99,,,-99.99,,2013-07-06 18:21:00,
2013-07-06 13:31:00,77.0,67.0,29.72,SE,140,14.0,-999.0,71,-99.99,,,-99.99,,2013-07-06 18:31:00,
2013-07-06 14:00:00,78.0,67.0,29.73,SE,129,7.0,-999.0,69,-99.99,,,-99.99,,2013-07-06 19:00:00,
2013-07-06 14:51:00,77.0,67.0,29.74,SE,144,6.0,-999.0,70,-99.99,,,-99.99,,2013-07-06 19:51:00,
2013-07-06 14:56:00,75.0,68.0,29.73,East,99,8.0,-999.0,79,-99.99,,,-99.99,,2013-07-06 19:56:00,
2013-07-06 15:20:00,75.0,71.0,29.74,East,84,4.0,-999.0,86,-99.99,,,-99.99,,2013-07-06 20:20:00,
2013-07-06 15:29:00,75.0,71.0,29.74,East,84,4.0,-999.0,86,-99.99,,,-99.99,,2013-07-06 20:29:00,
2013-07-06 15:42:00,75.0,71.0,29.73,East,84,9.0,-999.0,86,-99.99,,,-99.99,,2013-07-06 20:42:00,
2013-07-06 15:59:00,76.0,70.0,29.73,East,97,6.0,-999.0,81,-99.99,,,-99.99,,2013-07-06 20:59:00,
2013-07-06 16:51:00,79.0,70.0,29.72,East,94,10.0,-999.0,74,-99.99,,,-99.99,,2013-07-06 21:51:00,
2013-07-06 17:00:00,79.0,70.0,29.71,East,91,13.0,-999.0,74,-99.99,,,-99.99,,2013-07-06 22:00:00,
2013-07-06 17:59:00,80.0,69.0,29.72,SE,129,13.0,-999.0,70,-99.99,,,-99.99,,2013-07-06 22:59:00,
2013-07-06 18:20:00,80.0,70.0,29.72,SSE,149,9.0,-999.0,72,-99.99,,,-99.99,,2013-07-06 23:20:00,
2013-07-06 18:42:00,81.0,69.0,29.71,SE,125,9.0,-999.0,69,-99.99,,,-99.99,,2013-07-06 23:42:00,
2013-07-06 19:00:00,81.0,70.0,29.72,ESE,108,9.0,-999.0,69,-99.99,,,-99.99,,2013-07-07 00:00:00,
2013-07-06 19:12:00,80.0,68.0,29.71,ESE,116,7.0,-999.0,69,-99.99,,,-99.99,,2013-07-07 00:12:00,
2013-07-06 19:21:00,80.0,69.0,29.72,SE,139,5.0,-999.0,69,-99.99,,,-99.99,,2013-07-07 00:21:00,
2013-07-06 19:41:00,81.0,69.0,29.71,SE,126,9.0,-999.0,68,-99.99,,,-99.99,,2013-07-07 00:41:00,
2013-07-06 19:51:00,80.0,69.0,29.72,ESE,120,6.0,-999.0,69,-99.99,,,-99.99,,2013-07-07 00:51:00,
2013-07-06 20:19:00,80.0,70.0,29.72,ESE,107,7.0,-999.0,70,-99.99,,,-99.99,,2013-07-07 01:19:00,
2013-07-06 20:50:00,78.0,69.0,29.72,ENE,72,5.0,-999.0,74,-99.99,,,-99.99,,2013-07-07 01:50:00,
2013-07-06 20:58:00,77.0,70.0,29.72,ENE,70,5.0,-999.0,79,-99.99,,,-99.99,,2013-07-07 01:58:00,
2013-07-06 22:47:00,74.0,71.0,29.74,East,82,8.0,-999.0,90,-99.99,,,-99.99,,2013-07-07 03:47:00,
2013-07-06 23:01:00,73.0,72.0,29.74,ENE,73,7.0,-999.0,95,-99.99,,,-99.99,,2013-07-07 04:01:00,
2013-07-06 23:11:00,72.0,72.0,29.74,ENE,77,7.0,-999.0,98,-99.99,,,-99.99,,2013-07-07 04:11:00,
2013-07-06 23:42:00,72.0,-99.9,29.74,ENE,58,5.0,-999.0,-999,-99.99,,,-99.99,,2013-07-07 04:42:00,
2013-07-06 23:52:00,71.0,-99.9,29.74,ENE,71,6.0,-999.0,-999,-99.99,,,-99.99,,2013-07-07 04:52:00,